sensor_id;sensor_type;location;lat;lon;timestamp;P1;durP1;ratioP1;P2;durP2;ratioP2
16822;SDS011;8528;49.976;11.858;2023-09-19T00:00:06;5.47;;;4.90;;
16822;SDS011;8528;49.976;11.858;2023-09-19T00:02:33;5.33;;;4.83;;
16822;SDS011;8528;49.976;11.858;2023-09-19T00:05:00;5.70;;;4.60;;
16822;SDS011;8528;49.976;11.858;2023-09-19T00:07:31;5.53;;;4.97;;
16822;SDS011;8528;49.976;11.858;2023-09-19T00:09:58;4.33;;;3.93;;
16822;SDS011;8528;49.976;11.858;2023-09-19T00:12:24;4.87;;;4.47;;
16822;SDS011;8528;49.976;11.858;2023-09-19T00:14:51;5.40;;;4.93;;
16822;SDS011;8528;49.976;11.858;2023-09-19T00:17:19;5.80;;;4.70;;
16822;SDS011;8528;49.976;11.858;2023-09-19T00:19:46;6.93;;;4.93;;
16822;SDS011;8528;49.976;11.858;2023-09-19T00:22:17;5.43;;;4.20;;
16822;SDS011;8528;49.976;11.858;2023-09-19T00:24:45;5.83;;;4.30;;
16822;SDS011;8528;49.976;11.858;2023-09-19T00:27:12;4.97;;;4.47;;
16822;SDS011;8528;49.976;11.858;2023-09-19T00:29:38;4.47;;;3.93;;
16822;SDS011;8528;49.976;11.858;2023-09-19T00:32:06;5.20;;;4.20;;
16822;SDS011;8528;49.976;11.858;2023-09-19T00:34:33;5.13;;;3.83;;
16822;SDS011;8528;49.976;11.858;2023-09-19T00:37:00;4.97;;;3.67;;
16822;SDS011;8528;49.976;11.858;2023-09-19T00:39:27;4.07;;;3.67;;
16822;SDS011;8528;49.976;11.858;2023-09-19T00:41:54;3.87;;;3.20;;
16822;SDS011;8528;49.976;11.858;2023-09-19T00:44:21;4.10;;;3.57;;
16822;SDS011;8528;49.976;11.858;2023-09-19T00:46:49;4.53;;;3.30;;
16822;SDS011;8528;49.976;11.858;2023-09-19T00:49:17;3.77;;;3.37;;
16822;SDS011;8528;49.976;11.858;2023-09-19T00:51:46;4.30;;;3.90;;
16822;SDS011;8528;49.976;11.858;2023-09-19T00:54:14;4.80;;;3.47;;
16822;SDS011;8528;49.976;11.858;2023-09-19T00:56:45;4.10;;;3.50;;
16822;SDS011;8528;49.976;11.858;2023-09-19T00:59:12;3.90;;;3.37;;
16822;SDS011;8528;49.976;11.858;2023-09-19T01:01:39;5.63;;;3.50;;
16822;SDS011;8528;49.976;11.858;2023-09-19T01:04:06;4.33;;;3.30;;
16822;SDS011;8528;49.976;11.858;2023-09-19T01:06:33;3.60;;;3.30;;
16822;SDS011;8528;49.976;11.858;2023-09-19T01:09:00;3.57;;;3.07;;
16822;SDS011;8528;49.976;11.858;2023-09-19T01:11:36;3.40;;;3.03;;
16822;SDS011;8528;49.976;11.858;2023-09-19T01:14:20;3.50;;;3.20;;
16822;SDS011;8528;49.976;11.858;2023-09-19T01:17:02;3.67;;;3.10;;
16822;SDS011;8528;49.976;11.858;2023-09-19T01:22:23;3.97;;;3.57;;
16822;SDS011;8528;49.976;11.858;2023-09-19T01:30:35;3.83;;;3.37;;
16822;SDS011;8528;49.976;11.858;2023-09-19T01:33:05;4.57;;;3.00;;
16822;SDS011;8528;49.976;11.858;2023-09-19T01:35:33;5.10;;;3.20;;
16822;SDS011;8528;49.976;11.858;2023-09-19T01:38:00;4.10;;;3.17;;
16822;SDS011;8528;49.976;11.858;2023-09-19T01:40:27;3.77;;;3.00;;
16822;SDS011;8528;49.976;11.858;2023-09-19T01:42:59;3.70;;;3.10;;
16822;SDS011;8528;49.976;11.858;2023-09-19T01:46:09;3.20;;;2.90;;
16822;SDS011;8528;49.976;11.858;2023-09-19T01:49:03;3.20;;;2.57;;
16822;SDS011;8528;49.976;11.858;2023-09-19T01:51:45;3.27;;;2.77;;
16822;SDS011;8528;49.976;11.858;2023-09-19T01:54:34;5.37;;;2.90;;
16822;SDS011;8528;49.976;11.858;2023-09-19T01:57:26;3.53;;;2.63;;
16822;SDS011;8528;49.976;11.858;2023-09-19T02:00:03;3.17;;;2.57;;
16822;SDS011;8528;49.976;11.858;2023-09-19T02:02:36;4.80;;;2.70;;
16822;SDS011;8528;49.976;11.858;2023-09-19T02:05:04;4.00;;;3.07;;
16822;SDS011;8528;49.976;11.858;2023-09-19T02:07:32;2.90;;;2.60;;
16822;SDS011;8528;49.976;11.858;2023-09-19T02:09:59;2.30;;;2.10;;
16822;SDS011;8528;49.976;11.858;2023-09-19T02:12:26;2.97;;;2.47;;
16822;SDS011;8528;49.976;11.858;2023-09-19T02:14:53;3.13;;;2.40;;
16822;SDS011;8528;49.976;11.858;2023-09-19T02:17:20;4.97;;;2.90;;
16822;SDS011;8528;49.976;11.858;2023-09-19T02:19:47;5.47;;;3.03;;
16822;SDS011;8528;49.976;11.858;2023-09-19T02:22:14;4.10;;;2.80;;
16822;SDS011;8528;49.976;11.858;2023-09-19T02:24:42;4.27;;;2.90;;
16822;SDS011;8528;49.976;11.858;2023-09-19T02:27:09;2.53;;;2.33;;
16822;SDS011;8528;49.976;11.858;2023-09-19T02:29:39;2.67;;;2.43;;
16822;SDS011;8528;49.976;11.858;2023-09-19T02:32:05;4.00;;;2.33;;
16822;SDS011;8528;49.976;11.858;2023-09-19T02:34:33;3.47;;;2.60;;
16822;SDS011;8528;49.976;11.858;2023-09-19T02:37:03;3.93;;;2.40;;
16822;SDS011;8528;49.976;11.858;2023-09-19T02:39:31;4.20;;;3.20;;
16822;SDS011;8528;49.976;11.858;2023-09-19T02:41:58;3.23;;;2.80;;
16822;SDS011;8528;49.976;11.858;2023-09-19T02:44:25;2.87;;;2.57;;
16822;SDS011;8528;49.976;11.858;2023-09-19T02:46:52;5.40;;;3.37;;
16822;SDS011;8528;49.976;11.858;2023-09-19T02:49:19;3.70;;;2.80;;
16822;SDS011;8528;49.976;11.858;2023-09-19T02:51:46;2.47;;;2.27;;
16822;SDS011;8528;49.976;11.858;2023-09-19T02:54:13;3.00;;;2.50;;
16822;SDS011;8528;49.976;11.858;2023-09-19T02:56:41;4.07;;;2.40;;
16822;SDS011;8528;49.976;11.858;2023-09-19T02:59:08;2.67;;;2.27;;
16822;SDS011;8528;49.976;11.858;2023-09-19T03:01:38;7.13;;;2.90;;
16822;SDS011;8528;49.976;11.858;2023-09-19T03:04:05;3.53;;;2.40;;
16822;SDS011;8528;49.976;11.858;2023-09-19T03:06:35;3.10;;;2.60;;
16822;SDS011;8528;49.976;11.858;2023-09-19T03:09:01;2.97;;;2.70;;
16822;SDS011;8528;49.976;11.858;2023-09-19T03:11:32;3.23;;;2.73;;
16822;SDS011;8528;49.976;11.858;2023-09-19T03:13:59;3.30;;;2.90;;
16822;SDS011;8528;49.976;11.858;2023-09-19T03:16:26;3.17;;;2.60;;
16822;SDS011;8528;49.976;11.858;2023-09-19T03:18:53;3.37;;;2.83;;
16822;SDS011;8528;49.976;11.858;2023-09-19T03:21:20;3.23;;;2.90;;
16822;SDS011;8528;49.976;11.858;2023-09-19T03:23:47;3.57;;;3.27;;
16822;SDS011;8528;49.976;11.858;2023-09-19T03:26:14;2.70;;;2.50;;
16822;SDS011;8528;49.976;11.858;2023-09-19T03:28:42;3.67;;;2.70;;
16822;SDS011;8528;49.976;11.858;2023-09-19T03:31:09;3.87;;;2.63;;
16822;SDS011;8528;49.976;11.858;2023-09-19T03:33:37;3.50;;;2.83;;
16822;SDS011;8528;49.976;11.858;2023-09-19T03:36:04;3.23;;;2.93;;
16822;SDS011;8528;49.976;11.858;2023-09-19T03:38:32;3.40;;;3.10;;
16822;SDS011;8528;49.976;11.858;2023-09-19T03:41:01;3.77;;;3.20;;
16822;SDS011;8528;49.976;11.858;2023-09-19T03:43:28;4.03;;;3.70;;
16822;SDS011;8528;49.976;11.858;2023-09-19T03:45:55;4.97;;;3.80;;
16822;SDS011;8528;49.976;11.858;2023-09-19T03:48:22;5.30;;;3.80;;
16822;SDS011;8528;49.976;11.858;2023-09-19T03:50:49;4.03;;;3.60;;
16822;SDS011;8528;49.976;11.858;2023-09-19T03:53:17;4.10;;;3.70;;
16822;SDS011;8528;49.976;11.858;2023-09-19T03:55:44;4.07;;;3.60;;
16822;SDS011;8528;49.976;11.858;2023-09-19T03:58:12;3.70;;;3.40;;
16822;SDS011;8528;49.976;11.858;2023-09-19T04:00:39;4.43;;;3.70;;
16822;SDS011;8528;49.976;11.858;2023-09-19T04:03:07;3.77;;;3.47;;
16822;SDS011;8528;49.976;11.858;2023-09-19T04:05:34;4.00;;;3.67;;
16822;SDS011;8528;49.976;11.858;2023-09-19T04:08:01;4.23;;;3.50;;
16822;SDS011;8528;49.976;11.858;2023-09-19T04:10:28;4.37;;;3.07;;
16822;SDS011;8528;49.976;11.858;2023-09-19T04:12:55;5.70;;;3.50;;
16822;SDS011;8528;49.976;11.858;2023-09-19T04:15:23;4.23;;;3.53;;
16822;SDS011;8528;49.976;11.858;2023-09-19T04:17:50;3.83;;;3.30;;
16822;SDS011;8528;49.976;11.858;2023-09-19T04:20:17;3.60;;;3.13;;
16822;SDS011;8528;49.976;11.858;2023-09-19T04:22:49;3.83;;;2.80;;
16822;SDS011;8528;49.976;11.858;2023-09-19T04:25:16;4.97;;;2.97;;
16822;SDS011;8528;49.976;11.858;2023-09-19T04:27:44;3.97;;;3.03;;
16822;SDS011;8528;49.976;11.858;2023-09-19T04:30:12;5.07;;;3.00;;
16822;SDS011;8528;49.976;11.858;2023-09-19T04:32:41;3.97;;;3.00;;
16822;SDS011;8528;49.976;11.858;2023-09-19T04:35:08;4.20;;;3.17;;
16822;SDS011;8528;49.976;11.858;2023-09-19T04:37:40;3.60;;;3.30;;
16822;SDS011;8528;49.976;11.858;2023-09-19T04:40:10;3.60;;;3.30;;
16822;SDS011;8528;49.976;11.858;2023-09-19T04:42:52;4.37;;;3.10;;
16822;SDS011;8528;49.976;11.858;2023-09-19T04:45:23;4.67;;;3.20;;
16822;SDS011;8528;49.976;11.858;2023-09-19T04:47:50;4.80;;;3.47;;
16822;SDS011;8528;49.976;11.858;2023-09-19T04:50:17;4.57;;;3.50;;
16822;SDS011;8528;49.976;11.858;2023-09-19T04:52:44;3.97;;;3.20;;
16822;SDS011;8528;49.976;11.858;2023-09-19T04:55:12;4.23;;;3.57;;
16822;SDS011;8528;49.976;11.858;2023-09-19T04:57:47;3.50;;;3.20;;
16822;SDS011;8528;49.976;11.858;2023-09-19T05:00:15;3.60;;;3.30;;
16822;SDS011;8528;49.976;11.858;2023-09-19T05:02:45;3.50;;;3.20;;
16822;SDS011;8528;49.976;11.858;2023-09-19T05:05:15;4.17;;;3.50;;
16822;SDS011;8528;49.976;11.858;2023-09-19T05:07:45;4.33;;;4.03;;
16822;SDS011;8528;49.976;11.858;2023-09-19T05:10:13;3.63;;;3.33;;
16822;SDS011;8528;49.976;11.858;2023-09-19T05:12:41;3.90;;;2.97;;
16822;SDS011;8528;49.976;11.858;2023-09-19T05:15:09;3.73;;;2.90;;
16822;SDS011;8528;49.976;11.858;2023-09-19T05:17:36;4.37;;;3.33;;
16822;SDS011;8528;49.976;11.858;2023-09-19T05:20:03;5.50;;;3.57;;
16822;SDS011;8528;49.976;11.858;2023-09-19T05:22:42;3.70;;;3.40;;
16822;SDS011;8528;49.976;11.858;2023-09-19T05:25:10;5.20;;;3.70;;
16822;SDS011;8528;49.976;11.858;2023-09-19T05:27:37;4.27;;;3.50;;
16822;SDS011;8528;49.976;11.858;2023-09-19T05:30:04;4.43;;;3.50;;
16822;SDS011;8528;49.976;11.858;2023-09-19T05:32:31;4.87;;;3.70;;
16822;SDS011;8528;49.976;11.858;2023-09-19T05:34:58;5.40;;;3.77;;
16822;SDS011;8528;49.976;11.858;2023-09-19T05:37:25;6.27;;;3.87;;
16822;SDS011;8528;49.976;11.858;2023-09-19T05:39:52;4.27;;;3.83;;
16822;SDS011;8528;49.976;11.858;2023-09-19T05:42:20;8.03;;;4.03;;
16822;SDS011;8528;49.976;11.858;2023-09-19T05:44:47;3.90;;;3.50;;
16822;SDS011;8528;49.976;11.858;2023-09-19T05:47:13;4.40;;;3.60;;
16822;SDS011;8528;49.976;11.858;2023-09-19T05:49:40;6.33;;;4.27;;
16822;SDS011;8528;49.976;11.858;2023-09-19T05:52:07;4.17;;;3.30;;
16822;SDS011;8528;49.976;11.858;2023-09-19T05:54:34;3.50;;;3.20;;
16822;SDS011;8528;49.976;11.858;2023-09-19T05:57:01;4.30;;;3.53;;
16822;SDS011;8528;49.976;11.858;2023-09-19T05:59:28;4.40;;;4.00;;
16822;SDS011;8528;49.976;11.858;2023-09-19T06:01:56;4.00;;;3.67;;
16822;SDS011;8528;49.976;11.858;2023-09-19T06:04:23;9.13;;;3.80;;
16822;SDS011;8528;49.976;11.858;2023-09-19T06:06:50;3.80;;;3.50;;
16822;SDS011;8528;49.976;11.858;2023-09-19T06:09:17;4.13;;;3.30;;
16822;SDS011;8528;49.976;11.858;2023-09-19T06:11:49;3.43;;;3.13;;
16822;SDS011;8528;49.976;11.858;2023-09-19T06:14:16;3.83;;;3.27;;
16822;SDS011;8528;49.976;11.858;2023-09-19T06:16:44;3.63;;;3.27;;
16822;SDS011;8528;49.976;11.858;2023-09-19T06:19:11;3.00;;;2.80;;
16822;SDS011;8528;49.976;11.858;2023-09-19T06:21:38;3.40;;;3.10;;
16822;SDS011;8528;49.976;11.858;2023-09-19T06:24:05;3.90;;;2.70;;
16822;SDS011;8528;49.976;11.858;2023-09-19T06:26:32;4.37;;;2.90;;
16822;SDS011;8528;49.976;11.858;2023-09-19T06:28:59;2.77;;;2.57;;
16822;SDS011;8528;49.976;11.858;2023-09-19T06:31:26;4.73;;;2.40;;
16822;SDS011;8528;49.976;11.858;2023-09-19T06:33:53;2.47;;;2.27;;
16822;SDS011;8528;49.976;11.858;2023-09-19T06:36:20;6.20;;;2.80;;
16822;SDS011;8528;49.976;11.858;2023-09-19T06:38:48;3.30;;;2.20;;
16822;SDS011;8528;49.976;11.858;2023-09-19T06:41:17;5.50;;;2.30;;
16822;SDS011;8528;49.976;11.858;2023-09-19T06:43:44;3.07;;;2.37;;
16822;SDS011;8528;49.976;11.858;2023-09-19T06:46:11;2.80;;;2.40;;
16822;SDS011;8528;49.976;11.858;2023-09-19T06:48:39;2.50;;;2.30;;
16822;SDS011;8528;49.976;11.858;2023-09-19T06:51:06;3.17;;;2.70;;
16822;SDS011;8528;49.976;11.858;2023-09-19T06:53:34;3.23;;;2.90;;
16822;SDS011;8528;49.976;11.858;2023-09-19T06:56:02;3.23;;;2.60;;
16822;SDS011;8528;49.976;11.858;2023-09-19T06:58:29;3.27;;;2.50;;
16822;SDS011;8528;49.976;11.858;2023-09-19T07:00:57;2.73;;;2.53;;
16822;SDS011;8528;49.976;11.858;2023-09-19T07:03:24;2.43;;;2.23;;
16822;SDS011;8528;49.976;11.858;2023-09-19T07:05:53;4.00;;;1.87;;
16822;SDS011;8528;49.976;11.858;2023-09-19T07:08:22;1.80;;;1.70;;
16822;SDS011;8528;49.976;11.858;2023-09-19T07:10:48;2.37;;;1.90;;
16822;SDS011;8528;49.976;11.858;2023-09-19T07:13:16;2.73;;;1.77;;
16822;SDS011;8528;49.976;11.858;2023-09-19T07:15:43;3.37;;;1.50;;
16822;SDS011;8528;49.976;11.858;2023-09-19T07:18:14;1.90;;;1.40;;
16822;SDS011;8528;49.976;11.858;2023-09-19T07:20:43;2.13;;;1.67;;
16822;SDS011;8528;49.976;11.858;2023-09-19T07:23:21;1.73;;;1.40;;
16822;SDS011;8528;49.976;11.858;2023-09-19T07:25:49;1.90;;;1.43;;
16822;SDS011;8528;49.976;11.858;2023-09-19T07:28:16;1.70;;;1.60;;
16822;SDS011;8528;49.976;11.858;2023-09-19T07:30:43;2.08;;;1.50;;
16822;SDS011;8528;49.976;11.858;2023-09-19T07:33:10;1.90;;;1.50;;
16822;SDS011;8528;49.976;11.858;2023-09-19T07:35:40;3.05;;;1.50;;
16822;SDS011;8528;49.976;11.858;2023-09-19T07:38:11;1.98;;;1.50;;
16822;SDS011;8528;49.976;11.858;2023-09-19T07:40:38;1.67;;;1.40;;
16822;SDS011;8528;49.976;11.858;2023-09-19T07:43:05;1.50;;;1.40;;
16822;SDS011;8528;49.976;11.858;2023-09-19T07:45:33;2.45;;;1.40;;
16822;SDS011;8528;49.976;11.858;2023-09-19T07:48:00;2.67;;;1.67;;
16822;SDS011;8528;49.976;11.858;2023-09-19T07:50:30;2.00;;;1.65;;
16822;SDS011;8528;49.976;11.858;2023-09-19T07:52:59;2.40;;;1.98;;
16822;SDS011;8528;49.976;11.858;2023-09-19T07:55:26;2.53;;;1.65;;
16822;SDS011;8528;49.976;11.858;2023-09-19T07:57:53;2.28;;;1.48;;
16822;SDS011;8528;49.976;11.858;2023-09-19T08:00:20;2.00;;;1.65;;
16822;SDS011;8528;49.976;11.858;2023-09-19T08:02:47;2.45;;;1.70;;
16822;SDS011;8528;49.976;11.858;2023-09-19T08:05:23;1.80;;;1.42;;
16822;SDS011;8528;49.976;11.858;2023-09-19T08:07:51;2.38;;;1.52;;
16822;SDS011;8528;49.976;11.858;2023-09-19T08:10:19;2.55;;;1.63;;
16822;SDS011;8528;49.976;11.858;2023-09-19T08:12:47;1.92;;;1.60;;
16822;SDS011;8528;49.976;11.858;2023-09-19T08:15:15;1.85;;;1.45;;
16822;SDS011;8528;49.976;11.858;2023-09-19T08:17:43;2.70;;;1.30;;
16822;SDS011;8528;49.976;11.858;2023-09-19T08:20:11;5.25;;;1.88;;
16822;SDS011;8528;49.976;11.858;2023-09-19T08:22:48;2.35;;;1.60;;
16822;SDS011;8528;49.976;11.858;2023-09-19T08:25:21;2.83;;;1.70;;
16822;SDS011;8528;49.976;11.858;2023-09-19T08:27:49;1.93;;;1.67;;
16822;SDS011;8528;49.976;11.858;2023-09-19T08:30:18;1.97;;;1.70;;
16822;SDS011;8528;49.976;11.858;2023-09-19T08:32:50;3.50;;;1.70;;
16822;SDS011;8528;49.976;11.858;2023-09-19T08:35:17;2.00;;;1.77;;
16822;SDS011;8528;49.976;11.858;2023-09-19T08:37:45;3.43;;;2.10;;
16822;SDS011;8528;49.976;11.858;2023-09-19T08:40:12;2.03;;;1.60;;
16822;SDS011;8528;49.976;11.858;2023-09-19T08:42:49;2.67;;;1.65;;
16822;SDS011;8528;49.976;11.858;2023-09-19T08:45:21;2.13;;;1.60;;
16822;SDS011;8528;49.976;11.858;2023-09-19T08:47:53;1.90;;;1.40;;
16822;SDS011;8528;49.976;11.858;2023-09-19T08:50:31;2.00;;;1.50;;
16822;SDS011;8528;49.976;11.858;2023-09-19T08:53:06;3.13;;;1.73;;
16822;SDS011;8528;49.976;11.858;2023-09-19T08:55:38;1.95;;;1.75;;
16822;SDS011;8528;49.976;11.858;2023-09-19T08:58:09;2.00;;;1.80;;
16822;SDS011;8528;49.976;11.858;2023-09-19T09:00:36;3.13;;;1.90;;
16822;SDS011;8528;49.976;11.858;2023-09-19T09:03:09;2.90;;;1.60;;
16822;SDS011;8528;49.976;11.858;2023-09-19T09:05:36;1.70;;;1.48;;
16822;SDS011;8528;49.976;11.858;2023-09-19T09:08:07;1.60;;;1.50;;
16822;SDS011;8528;49.976;11.858;2023-09-19T09:10:35;5.10;;;1.93;;
16822;SDS011;8528;49.976;11.858;2023-09-19T09:13:04;2.70;;;1.40;;
16822;SDS011;8528;49.976;11.858;2023-09-19T09:15:35;2.27;;;1.53;;
16822;SDS011;8528;49.976;11.858;2023-09-19T09:18:03;1.88;;;1.40;;
16822;SDS011;8528;49.976;11.858;2023-09-19T09:20:31;3.00;;;1.48;;
16822;SDS011;8528;49.976;11.858;2023-09-19T09:22:58;1.70;;;1.40;;
16822;SDS011;8528;49.976;11.858;2023-09-19T09:28:18;1.27;;;1.17;;
16822;SDS011;8528;49.976;11.858;2023-09-19T09:30:47;1.48;;;1.20;;
16822;SDS011;8528;49.976;11.858;2023-09-19T09:33:14;3.80;;;1.40;;
16822;SDS011;8528;49.976;11.858;2023-09-19T09:35:53;1.60;;;1.50;;
16822;SDS011;8528;49.976;11.858;2023-09-19T09:38:23;3.58;;;1.42;;
16822;SDS011;8528;49.976;11.858;2023-09-19T09:40:54;3.30;;;1.50;;
16822;SDS011;8528;49.976;11.858;2023-09-19T09:43:36;2.58;;;1.40;;
16822;SDS011;8528;49.976;11.858;2023-09-19T09:46:07;2.08;;;1.75;;
16822;SDS011;8528;49.976;11.858;2023-09-19T09:51:46;1.83;;;1.50;;
16822;SDS011;8528;49.976;11.858;2023-09-19T09:55:17;2.33;;;1.70;;
16822;SDS011;8528;49.976;11.858;2023-09-19T09:57:37;2.93;;;1.77;;
16822;SDS011;8528;49.976;11.858;2023-09-19T10:00:07;2.17;;;1.60;;
16822;SDS011;8528;49.976;11.858;2023-09-19T10:02:41;2.70;;;1.70;;
16822;SDS011;8528;49.976;11.858;2023-09-19T10:05:18;2.30;;;1.60;;
16822;SDS011;8528;49.976;11.858;2023-09-19T10:07:50;2.17;;;1.57;;
16822;SDS011;8528;49.976;11.858;2023-09-19T10:10:29;2.67;;;1.40;;
16822;SDS011;8528;49.976;11.858;2023-09-19T10:13:05;2.57;;;1.57;;
16822;SDS011;8528;49.976;11.858;2023-09-19T10:15:33;2.23;;;1.40;;
16822;SDS011;8528;49.976;11.858;2023-09-19T10:18:04;1.30;;;1.13;;
16822;SDS011;8528;49.976;11.858;2023-09-19T10:20:31;2.97;;;1.50;;
16822;SDS011;8528;49.976;11.858;2023-09-19T10:23:08;1.77;;;1.27;;
16822;SDS011;8528;49.976;11.858;2023-09-19T10:25:39;2.07;;;1.30;;
16822;SDS011;8528;49.976;11.858;2023-09-19T10:28:25;2.10;;;1.23;;
16822;SDS011;8528;49.976;11.858;2023-09-19T10:30:55;2.10;;;1.30;;
16822;SDS011;8528;49.976;11.858;2023-09-19T10:33:24;2.97;;;1.40;;
16822;SDS011;8528;49.976;11.858;2023-09-19T10:35:59;2.07;;;1.40;;
16822;SDS011;8528;49.976;11.858;2023-09-19T10:38:27;2.73;;;1.67;;
16822;SDS011;8528;49.976;11.858;2023-09-19T10:40:56;3.73;;;1.60;;
16822;SDS011;8528;49.976;11.858;2023-09-19T10:43:31;2.97;;;1.53;;
16822;SDS011;8528;49.976;11.858;2023-09-19T10:46:03;1.47;;;1.30;;
16822;SDS011;8528;49.976;11.858;2023-09-19T10:48:36;1.70;;;1.20;;
16822;SDS011;8528;49.976;11.858;2023-09-19T10:51:12;2.03;;;1.30;;
16822;SDS011;8528;49.976;11.858;2023-09-19T10:53:49;1.67;;;1.20;;
16822;SDS011;8528;49.976;11.858;2023-09-19T10:56:19;2.27;;;1.30;;
16822;SDS011;8528;49.976;11.858;2023-09-19T10:59:14;1.33;;;1.10;;
16822;SDS011;8528;49.976;11.858;2023-09-19T11:01:46;2.13;;;1.50;;
16822;SDS011;8528;49.976;11.858;2023-09-19T11:04:22;1.87;;;1.17;;
16822;SDS011;8528;49.976;11.858;2023-09-19T11:07:00;1.70;;;1.10;;
16822;SDS011;8528;49.976;11.858;2023-09-19T11:09:44;2.37;;;1.20;;
16822;SDS011;8528;49.976;11.858;2023-09-19T11:16:02;1.93;;;1.57;;
16822;SDS011;8528;49.976;11.858;2023-09-19T11:26:48;3.03;;;1.67;;
16822;SDS011;8528;49.976;11.858;2023-09-19T11:29:25;4.93;;;1.60;;
16822;SDS011;8528;49.976;11.858;2023-09-19T11:31:57;2.97;;;1.53;;
16822;SDS011;8528;49.976;11.858;2023-09-19T11:37:03;2.20;;;1.40;;
16822;SDS011;8528;49.976;11.858;2023-09-19T11:39:38;3.77;;;1.40;;
16822;SDS011;8528;49.976;11.858;2023-09-19T11:48:24;2.43;;;1.27;;
16822;SDS011;8528;49.976;11.858;2023-09-19T11:50:54;1.85;;;1.40;;
16822;SDS011;8528;49.976;11.858;2023-09-19T11:53:21;2.13;;;1.60;;
16822;SDS011;8528;49.976;11.858;2023-09-19T11:55:50;2.53;;;1.40;;
16822;SDS011;8528;49.976;11.858;2023-09-19T11:58:19;3.95;;;1.50;;
16822;SDS011;8528;49.976;11.858;2023-09-19T12:00:46;3.47;;;1.52;;
16822;SDS011;8528;49.976;11.858;2023-09-19T12:03:23;3.13;;;1.60;;
16822;SDS011;8528;49.976;11.858;2023-09-19T12:05:57;4.40;;;1.35;;
16822;SDS011;8528;49.976;11.858;2023-09-19T12:08:25;2.22;;;1.38;;
16822;SDS011;8528;49.976;11.858;2023-09-19T12:10:54;2.28;;;1.50;;
16822;SDS011;8528;49.976;11.858;2023-09-19T12:13:24;2.40;;;1.38;;
16822;SDS011;8528;49.976;11.858;2023-09-19T12:15:51;2.40;;;1.27;;
16822;SDS011;8528;49.976;11.858;2023-09-19T12:18:26;2.77;;;1.80;;
16822;SDS011;8528;49.976;11.858;2023-09-19T12:20:54;2.67;;;1.48;;
16822;SDS011;8528;49.976;11.858;2023-09-19T12:23:22;4.75;;;1.60;;
16822;SDS011;8528;49.976;11.858;2023-09-19T12:25:49;1.73;;;1.40;;
16822;SDS011;8528;49.976;11.858;2023-09-19T12:28:19;3.95;;;1.60;;
16822;SDS011;8528;49.976;11.858;2023-09-19T12:30:49;1.52;;;1.20;;
16822;SDS011;8528;49.976;11.858;2023-09-19T12:33:18;2.05;;;1.30;;
16822;SDS011;8528;49.976;11.858;2023-09-19T12:35:46;1.70;;;1.30;;
16822;SDS011;8528;49.976;11.858;2023-09-19T12:38:24;1.30;;;1.20;;
16822;SDS011;8528;49.976;11.858;2023-09-19T12:40:55;1.80;;;1.53;;
16822;SDS011;8528;49.976;11.858;2023-09-19T12:43:23;2.20;;;1.60;;
16822;SDS011;8528;49.976;11.858;2023-09-19T12:45:50;3.67;;;1.50;;
16822;SDS011;8528;49.976;11.858;2023-09-19T12:48:20;2.60;;;1.53;;
16822;SDS011;8528;49.976;11.858;2023-09-19T12:51:05;2.27;;;1.40;;
16822;SDS011;8528;49.976;11.858;2023-09-19T12:53:34;1.70;;;1.60;;
16822;SDS011;8528;49.976;11.858;2023-09-19T12:56:13;2.22;;;1.60;;
16822;SDS011;8528;49.976;11.858;2023-09-19T12:58:52;2.20;;;1.50;;
16822;SDS011;8528;49.976;11.858;2023-09-19T13:01:21;2.23;;;1.50;;
16822;SDS011;8528;49.976;11.858;2023-09-19T13:06:46;2.27;;;1.53;;
16822;SDS011;8528;49.976;11.858;2023-09-19T13:09:16;3.60;;;1.77;;
16822;SDS011;8528;49.976;11.858;2023-09-19T13:11:44;2.45;;;1.52;;
16822;SDS011;8528;49.976;11.858;2023-09-19T13:16:55;2.63;;;1.50;;
16822;SDS011;8528;49.976;11.858;2023-09-19T13:19:39;2.30;;;1.53;;
16822;SDS011;8528;49.976;11.858;2023-09-19T13:25:10;1.33;;;1.20;;
16822;SDS011;8528;49.976;11.858;2023-09-19T13:27:46;1.93;;;1.50;;
16822;SDS011;8528;49.976;11.858;2023-09-19T13:30:19;2.47;;;1.50;;
16822;SDS011;8528;49.976;11.858;2023-09-19T13:32:47;1.45;;;1.30;;
16822;SDS011;8528;49.976;11.858;2023-09-19T13:35:14;2.13;;;1.55;;
16822;SDS011;8528;49.976;11.858;2023-09-19T13:37:42;2.43;;;1.47;;
16822;SDS011;8528;49.976;11.858;2023-09-19T13:40:13;3.00;;;1.50;;
16822;SDS011;8528;49.976;11.858;2023-09-19T13:42:41;2.07;;;1.30;;
16822;SDS011;8528;49.976;11.858;2023-09-19T13:45:09;2.53;;;1.50;;
16822;SDS011;8528;49.976;11.858;2023-09-19T13:47:42;2.60;;;1.50;;
16822;SDS011;8528;49.976;11.858;2023-09-19T13:50:30;1.97;;;1.40;;
16822;SDS011;8528;49.976;11.858;2023-09-19T13:52:57;3.87;;;1.43;;
16822;SDS011;8528;49.976;11.858;2023-09-19T13:55:27;4.97;;;1.70;;
16822;SDS011;8528;49.976;11.858;2023-09-19T13:57:54;5.50;;;1.63;;
16822;SDS011;8528;49.976;11.858;2023-09-19T14:00:22;1.43;;;1.20;;
16822;SDS011;8528;49.976;11.858;2023-09-19T14:02:50;1.40;;;1.30;;
16822;SDS011;8528;49.976;11.858;2023-09-19T14:05:18;2.03;;;1.50;;
16822;SDS011;8528;49.976;11.858;2023-09-19T14:07:46;1.53;;;1.43;;
16822;SDS011;8528;49.976;11.858;2023-09-19T14:10:13;3.13;;;1.50;;
16822;SDS011;8528;49.976;11.858;2023-09-19T14:12:41;4.90;;;1.70;;
16822;SDS011;8528;49.976;11.858;2023-09-19T14:15:11;2.57;;;1.50;;
16822;SDS011;8528;49.976;11.858;2023-09-19T14:17:58;2.70;;;1.40;;
16822;SDS011;8528;49.976;11.858;2023-09-19T14:20:27;3.73;;;1.43;;
16822;SDS011;8528;49.976;11.858;2023-09-19T14:23:15;1.87;;;1.47;;
16822;SDS011;8528;49.976;11.858;2023-09-19T14:25:42;1.80;;;1.30;;
16822;SDS011;8528;49.976;11.858;2023-09-19T14:28:09;4.00;;;1.40;;
16822;SDS011;8528;49.976;11.858;2023-09-19T14:30:35;3.33;;;1.40;;
16822;SDS011;8528;49.976;11.858;2023-09-19T14:33:04;3.83;;;1.70;;
16822;SDS011;8528;49.976;11.858;2023-09-19T14:35:32;2.57;;;1.40;;
16822;SDS011;8528;49.976;11.858;2023-09-19T14:37:58;2.93;;;1.40;;
16822;SDS011;8528;49.976;11.858;2023-09-19T14:40:25;4.40;;;1.50;;
16822;SDS011;8528;49.976;11.858;2023-09-19T14:42:53;2.00;;;1.30;;
16822;SDS011;8528;49.976;11.858;2023-09-19T14:45:19;1.37;;;1.20;;
16822;SDS011;8528;49.976;11.858;2023-09-19T14:47:47;3.20;;;1.60;;
16822;SDS011;8528;49.976;11.858;2023-09-19T14:50:15;2.23;;;1.40;;
16822;SDS011;8528;49.976;11.858;2023-09-19T14:52:42;2.60;;;1.40;;
16822;SDS011;8528;49.976;11.858;2023-09-19T14:55:10;3.30;;;1.40;;
16822;SDS011;8528;49.976;11.858;2023-09-19T14:57:40;3.30;;;1.53;;
16822;SDS011;8528;49.976;11.858;2023-09-19T15:00:11;3.23;;;1.93;;
16822;SDS011;8528;49.976;11.858;2023-09-19T15:02:39;2.63;;;1.50;;
16822;SDS011;8528;49.976;11.858;2023-09-19T15:05:12;2.17;;;1.70;;
16822;SDS011;8528;49.976;11.858;2023-09-19T15:07:40;2.40;;;1.57;;
16822;SDS011;8528;49.976;11.858;2023-09-19T15:10:07;3.47;;;1.63;;
16822;SDS011;8528;49.976;11.858;2023-09-19T15:12:36;2.47;;;1.83;;
16822;SDS011;8528;49.976;11.858;2023-09-19T15:15:04;4.13;;;1.70;;
16822;SDS011;8528;49.976;11.858;2023-09-19T15:17:35;2.30;;;1.50;;
16822;SDS011;8528;49.976;11.858;2023-09-19T15:20:03;2.43;;;1.40;;
16822;SDS011;8528;49.976;11.858;2023-09-19T15:22:35;2.67;;;1.50;;
16822;SDS011;8528;49.976;11.858;2023-09-19T15:25:03;2.17;;;1.53;;
16822;SDS011;8528;49.976;11.858;2023-09-19T15:27:30;2.20;;;1.53;;
16822;SDS011;8528;49.976;11.858;2023-09-19T15:29:57;3.37;;;1.67;;
16822;SDS011;8528;49.976;11.858;2023-09-19T15:32:24;1.73;;;1.30;;
16822;SDS011;8528;49.976;11.858;2023-09-19T15:34:51;3.27;;;1.70;;
16822;SDS011;8528;49.976;11.858;2023-09-19T15:37:18;2.13;;;1.60;;
16822;SDS011;8528;49.976;11.858;2023-09-19T15:39:47;2.37;;;1.70;;
16822;SDS011;8528;49.976;11.858;2023-09-19T15:42:13;2.23;;;1.50;;
16822;SDS011;8528;49.976;11.858;2023-09-19T15:44:42;3.33;;;1.60;;
16822;SDS011;8528;49.976;11.858;2023-09-19T15:47:11;1.77;;;1.63;;